Time;durP1;ratioP1;P1;durP2;ratioP2;P2;SDS_P1;SDS_P2;PMS_P1;PMS_P2;Temp;Humidity;BMP_temperature;BMP_pressure;BME280_temperature;BME280_humidity;BME280_pressure;Samples;Min_cycle;Max_cycle;Signal;HPM_P1;HPM_P2
2021/03/26 04:15:23;;;;;;;4.35;0.90;;;0.30;95.80;;;;;;5093227;28;20083;-67
2021/03/26 04:17:56;;;;;;;7.88;0.82;;;0.30;95.90;;;;;;5093790;28;20429;-67
2021/03/26 04:20:37;;;;;;;4.78;0.77;;;0.30;95.40;;;;;;5093967;28;20020;-68
2021/03/26 04:23:36;;;;;;;1.85;0.80;;;0.30;95.30;;;;;;5080340;28;20024;-68
2021/03/26 04:26:20;;;;;;;2.20;0.80;;;0.30;95.60;;;;;;5078094;28;20044;-68
2021/03/26 04:28:53;;;;;;;2.50;0.70;;;0.20;95.40;;;;;;5093621;28;20352;-70
2021/03/26 04:31:28;;;;;;;3.50;1.10;;;0.20;95.40;;;;;;5109313;28;20119;-70
2021/03/26 04:33:54;;;;;;;1.33;1.00;;;0.20;95.50;;;;;;5093443;28;20028;-70
2021/03/26 04:36:29;;;;;;;0.80;0.70;;;0.20;95.30;;;;;;5093738;28;20435;-69
2021/03/26 04:39:13;;;;;;;0.82;0.80;;;0.20;95.50;;;;;;5093626;28;20028;-70
2021/03/26 04:41:48;;;;;;;2.55;0.80;;;0.10;95.30;;;;;;5093555;28;20307;-70
2021/03/26 04:44:24;;;;;;;1.52;0.77;;;0.20;95.10;;;;;;5093286;28;20078;-70
2021/03/26 04:46:56;;;;;;;1.30;0.68;;;0.20;96.10;;;;;;5079381;28;20024;-70
2021/03/26 04:49:45;;;;;;;1.02;1.00;;;0.20;96.90;;;;;;5093557;28;20375;-70
2021/03/26 04:52:35;;;;;;;4.53;0.93;;;0.20;97.50;;;;;;5092995;28;20036;-70
2021/03/26 04:55:21;;;;;;;3.30;0.90;;;0.20;97.60;;;;;;5092963;28;20016;-70
2021/03/26 04:57:52;;;;;;;2.15;0.90;;;0.20;96.70;;;;;;5093149;28;20024;-70
2021/03/26 05:00:23;;;;;;;0.85;0.80;;;0.40;96.30;;;;;;5092844;28;20394;-70
2021/03/26 05:02:58;;;;;;;1.70;0.80;;;0.70;96.90;;;;;;5093174;28;20036;-70
2021/03/26 05:05:26;;;;;;;1.75;0.95;;;1.00;95.50;;;;;;5093061;28;20058;-70
2021/03/26 05:08:03;;;;;;;1.30;0.75;;;1.40;94.40;;;;;;5092532;28;20031;-72
2021/03/26 05:10:32;;;;;;;0.95;0.60;;;1.80;92.10;;;;;;5092780;28;20020;-71
2021/03/26 05:13:04;;;;;;;0.80;0.80;;;2.10;91.20;;;;;;5092611;28;20075;-67
2021/03/26 05:15:45;;;;;;;0.60;0.60;;;2.40;90.10;;;;;;5092605;28;20047;-68
2021/03/26 05:18:25;;;;;;;2.20;0.80;;;2.70;88.50;;;;;;5092844;28;20020;-68
2021/03/26 05:21:03;;;;;;;0.85;0.70;;;3.10;87.10;;;;;;5092117;28;20040;-68
2021/03/26 05:24:01;;;;;;;2.30;0.80;;;3.40;84.00;;;;;;5092720;28;20127;-68
2021/03/26 05:26:27;;;;;;;9.00;0.85;;;3.70;83.00;;;;;;5078355;28;20043;-68
2021/03/26 05:28:54;;;;;;;21.92;1.15;;;3.80;81.30;;;;;;5092377;28;20039;-70
2021/03/26 05:31:35;;;;;;;7.00;1.00;;;4.00;81.00;;;;;;5107972;28;20514;-67
2021/03/26 05:34:11;;;;;;;2.97;0.68;;;4.30;79.70;;;;;;5092287;28;20052;-70
2021/03/26 05:36:45;;;;;;;3.40;0.60;;;4.50;79.30;;;;;;5078443;28;20088;-71
2021/03/26 05:39:28;;;;;;;1.15;0.68;;;4.70;77.80;;;;;;5092305;28;20495;-69
2021/03/26 05:42:35;;;;;;;1.45;0.73;;;5.00;77.30;;;;;;5079529;28;20078;-69
2021/03/26 05:45:19;;;;;;;0.98;0.80;;;6.40;99.90;;;;;;5091355;28;20032;-78
2021/03/26 05:48:12;;;;;;;0.55;0.50;;;8.20;77.10;;;;;;5092022;28;20020;-79
2021/03/26 05:50:56;;;;;;;1.05;0.57;;;7.90;70.80;;;;;;5087687;28;20074;-84
2021/03/26 05:53:46;;;;;;;2.40;0.90;;;7.40;69.50;;;;;;5090875;28;20036;-79
2021/03/26 05:56:31;;;;;;;1.42;0.50;;;7.10;69.50;;;;;;5088696;28;20020;-79
2021/03/26 05:59:34;;;;;;;3.00;0.68;;;7.00;69.60;;;;;;5091331;28;20087;-77
2021/03/26 06:02:19;;;;;;;0.73;0.40;;;7.00;69.80;;;;;;5088351;28;20522;-78
2021/03/26 06:04:59;;;;;;;13.77;0.95;;;7.10;69.40;;;;;;5091516;28;20020;-74
2021/03/26 06:07:31;;;;;;;;;;;7.20;69.50;;;;;;5091941;28;20016;-76
2021/03/26 06:10:12;;;;;;;5.38;0.93;;;7.20;68.40;;;;;;5088333;28;19908;-76
2021/03/26 06:13:09;;;;;;;6.55;0.90;;;7.20;69.70;;;;;;5087589;28;20032;-76
2021/03/26 06:16:12;;;;;;;6.03;2.05;;;7.20;69.10;;;;;;5087996;28;20121;-74
2021/03/26 06:19:07;;;;;;;7.85;1.15;;;7.30;69.60;;;;;;5089959;28;20502;-74
2021/03/26 06:22:01;;;;;;;7.82;2.00;;;7.30;69.20;;;;;;5090030;28;20021;-71
2021/03/26 06:25:04;;;;;;;6.95;1.35;;;7.40;69.10;;;;;;5091718;28;20073;-72
2021/03/26 06:27:38;;;;;;;8.48;1.00;;;7.40;69.90;;;;;;5091439;28;20597;-69
2021/03/26 06:30:34;;;;;;;6.97;1.02;;;7.40;68.90;;;;;;5091354;28;20077;-69
2021/03/26 06:33:37;;;;;;;3.90;0.98;;;7.50;68.20;;;;;;5092126;28;20043;-70
2021/03/26 06:36:09;;;;;;;3.08;0.85;;;7.50;67.70;;;;;;5095749;28;20020;-70
2021/03/26 06:38:45;;;;;;;7.38;1.10;;;7.30;68.00;;;;;;5095694;28;20016;-70
2021/03/26 06:41:46;;;;;;;6.60;1.10;;;7.30;69.00;;;;;;5095492;28;20020;-70
2021/03/26 06:44:44;;;;;;;5.07;1.42;;;7.30;68.90;;;;;;5061144;28;20036;-70
2021/03/26 06:47:35;;;;;;;3.28;0.80;;;7.40;68.70;;;;;;5028838;28;20032;-70
2021/03/26 06:50:19;;;;;;;8.65;1.02;;;7.30;68.00;;;;;;5095311;28;20601;-77
2021/03/26 06:53:07;;;;;;;5.78;1.70;;;7.30;67.70;;;;;;5091414;28;20101;-75
2021/03/26 06:55:43;;;;;;;7.90;0.93;;;7.30;67.80;;;;;;5087323;28;20096;-75
2021/03/26 06:58:27;;;;;;;7.10;1.30;;;7.10;68.10;;;;;;5095093;28;20035;-76
2021/03/26 07:01:07;;;;;;;9.70;1.17;;;7.00;69.10;;;;;;5095223;28;20028;-77
2021/03/26 07:04:04;;;;;;;3.78;1.10;;;7.00;68.80;;;;;;5093017;28;20048;-73
2021/03/26 07:06:45;;;;;;;10.48;1.15;;;7.20;72.50;;;;;;5095291;28;20433;-74
2021/03/26 07:09:57;;;;;;;5.68;1.20;;;7.20;70.20;;;;;;5094978;28;20093;-76
2021/03/26 07:12:48;;;;;;;6.68;0.90;;;7.30;70.90;;;;;;5053300;28;20040;-75
2021/03/26 07:15:13;;;;;;;;;;;7.40;70.20;;;;;;5094801;28;20120;-76
2021/03/26 07:18:10;;;;;;;9.93;1.75;;;7.30;68.30;;;;;;5090420;28;20353;-69
2021/03/26 07:21:03;;;;;;;2.30;1.10;;;7.20;68.70;;;;;;5094119;28;20028;-68
2021/03/26 07:23:46;;;;;;;5.85;0.90;;;7.20;69.10;;;;;;5084499;28;20048;-68
2021/03/26 07:26:37;;;;;;;14.88;1.27;;;7.20;68.60;;;;;;5094606;28;20024;-70
2021/03/26 07:29:29;;;;;;;12.90;1.00;;;7.10;68.50;;;;;;5094180;28;20036;-69
2021/03/26 07:32:18;;;;;;;15.25;1.70;;;7.10;68.60;;;;;;5083793;28;20036;-74
2021/03/26 07:35:21;;;;;;;123.10;6.80;;;7.10;69.60;;;;;;5093449;28;20514;-74
2021/03/26 07:37:56;;;;;;;5.90;1.10;;;8.20;84.80;;;;;;5093543;28;20031;-71
2021/03/26 07:40:53;;;;;;;7.50;1.60;;;8.20;69.60;;;;;;5094460;28;20032;-71
2021/03/26 07:43:40;;;;;;;4.68;1.13;;;8.00;77.90;;;;;;5093599;28;20023;-71
2021/03/26 07:46:39;;;;;;;10.35;1.00;;;8.50;84.10;;;;;;5093668;28;20020;-71
2021/03/26 07:49:45;;;;;;;3.13;0.90;;;8.50;69.30;;;;;;5091637;28;20063;-72
2021/03/26 07:52:40;;;;;;;1.75;0.70;;;8.10;67.90;;;;;;5084968;28;20134;-71
2021/03/26 07:55:30;;;;;;;7.43;1.13;;;7.80;69.10;;;;;;5056593;28;20059;-71
2021/03/26 07:58:04;;;;;;;22.92;2.03;;;7.60;68.40;;;;;;5093612;28;20111;-72
2021/03/26 08:00:57;;;;;;;7.90;0.90;;;7.40;70.90;;;;;;5083223;28;20031;-71
2021/03/26 08:03:32;;;;;;;4.93;1.05;;;7.40;69.50;;;;;;5090284;28;20016;-72
2021/03/26 08:06:16;;;;;;;5.68;1.15;;;7.30;72.60;;;;;;5087434;28;20016;-73
2021/03/26 08:09:00;;;;;;;20.23;1.40;;;7.60;71.30;;;;;;5091547;28;20387;-73
2021/03/26 08:11:59;;;;;;;11.50;1.33;;;7.50;69.40;;;;;;5092595;28;20487;-74
2021/03/26 08:14:34;;;;;;;27.13;1.92;;;7.30;69.90;;;;;;5093055;28;20047;-74
2021/03/26 08:17:07;;;;;;;4.57;1.45;;;7.20;70.50;;;;;;5093789;28;20083;-72
2021/03/26 08:19:55;;;;;;;5.20;1.38;;;7.20;70.80;;;;;;5093481;28;20417;-73
2021/03/26 08:22:48;;;;;;;9.88;1.30;;;7.20;70.90;;;;;;5093012;28;20513;-70
2021/03/26 08:25:26;;;;;;;11.50;1.95;;;7.20;70.90;;;;;;5092858;28;20502;-68
2021/03/26 08:28:25;;;;;;;12.05;1.83;;;7.10;70.40;;;;;;5092676;28;20028;-70
2021/03/26 08:31:28;;;;;;;5.43;1.17;;;7.20;72.70;;;;;;5090228;28;20479;-72
2021/03/26 08:34:25;;;;;;;4.72;1.05;;;8.10;77.00;;;;;;5093219;28;20024;-72
2021/03/26 08:37:03;;;;;;;7.78;1.48;;;8.00;69.70;;;;;;5082181;28;20368;-72
2021/03/26 08:39:44;;;;;;;19.20;1.90;;;7.70;69.80;;;;;;5093425;28;20024;-72
2021/03/26 08:42:12;;;;;;;19.65;1.92;;;7.60;69.40;;;;;;5093220;28;20024;-72
2021/03/26 08:44:39;;;;;;;13.30;1.98;;;7.50;69.40;;;;;;5093463;28;20036;-72
2021/03/26 08:47:15;;;;;;;25.45;2.15;;;7.50;70.10;;;;;;5093282;28;20028;-70
2021/03/26 08:49:44;;;;;;;17.95;1.80;;;7.50;70.60;;;;;;5093299;28;20032;-70
2021/03/26 08:52:40;;;;;;;40.33;3.53;;;7.60;69.90;;;;;;5092886;28;20036;-70
2021/03/26 08:55:40;;;;;;;10.88;1.98;;;7.60;69.80;;;;;;5093178;28;20016;-70
2021/03/26 08:58:43;;;;;;;9.75;1.83;;;7.60;69.60;;;;;;5092692;28;20032;-70
2021/03/26 09:01:42;;;;;;;20.98;2.10;;;7.60;69.50;;;;;;5092851;28;20067;-73
2021/03/26 09:04:26;;;;;;;21.13;2.30;;;7.70;69.60;;;;;;5081692;28;20479;-73
2021/03/26 09:07:11;;;;;;;18.15;1.75;;;7.70;68.60;;;;;;5092938;28;20016;-73
2021/03/26 09:10:06;;;;;;;16.20;1.60;;;7.70;68.20;;;;;;5092948;28;20020;-73
2021/03/26 09:13:13;;;;;;;7.72;1.00;;;7.80;68.20;;;;;;5091848;28;20633;-73
2021/03/26 09:15:57;;;;;;;22.67;1.45;;;8.40;76.60;;;;;;5042949;28;20080;-75
2021/03/26 09:19:02;;;;;;;38.58;1.90;;;8.60;67.30;;;;;;5072679;28;20419;-75
2021/03/26 09:21:31;;;;;;;10.75;0.90;;;8.60;69.40;;;;;;5059908;28;20017;-75
2021/03/26 09:24:09;;;;;;;27.17;1.70;;;8.50;66.10;;;;;;5072432;28;20029;-75
2021/03/26 09:26:53;;;;;;;10.93;1.00;;;8.40;65.20;;;;;;5059823;28;20020;-75
2021/03/26 09:29:33;;;;;;;11.85;1.48;;;8.30;65.10;;;;;;5072042;28;20031;-75
2021/03/26 09:32:07;;;;;;;;;;;8.30;65.30;;;;;;5072725;28;20035;-73
2021/03/26 09:34:40;;;;;;;8.82;1.27;;;8.40;65.30;;;;;;5072070;28;19916;-68
2021/03/26 09:37:27;;;;;;;10.73;1.70;;;8.40;65.30;;;;;;5071904;28;20369;-70
2021/03/26 09:40:00;;;;;;;6.50;1.20;;;8.40;64.30;;;;;;5071788;28;20357;-70
2021/03/26 09:42:29;;;;;;;11.02;1.35;;;8.50;64.80;;;;;;5071215;28;20146;-71
2021/03/26 09:45:07;;;;;;;9.95;1.27;;;8.50;65.30;;;;;;5071635;28;20021;-74
2021/03/26 09:47:39;;;;;;;9.95;0.90;;;8.60;65.10;;;;;;5068099;28;20047;-72
2021/03/26 09:50:27;;;;;;;14.32;1.90;;;8.70;65.30;;;;;;5070411;28;20107;-73
2021/03/26 09:52:53;;;;;;;6.57;0.90;;;8.70;63.70;;;;;;5070081;28;20036;-67
2021/03/26 09:55:24;;;;;;;14.55;1.30;;;8.80;63.30;;;;;;5069808;28;20036;-68
2021/03/26 09:57:59;;;;;;;17.48;1.50;;;8.80;62.80;;;;;;5068297;28;20430;-67
2021/03/26 10:00:54;;;;;;;6.55;0.80;;;8.80;62.70;;;;;;5067901;28;20071;-71
2021/03/26 10:03:32;;;;;;;17.98;1.98;;;8.90;62.90;;;;;;5070838;28;20093;-72
2021/03/26 10:06:04;;;;;;;8.23;1.30;;;8.90;63.40;;;;;;5071347;28;20020;-73
2021/03/26 10:08:47;;;;;;;5.35;0.82;;;8.90;63.40;;;;;;5071116;28;20070;-71
2021/03/26 10:11:21;;;;;;;4.13;0.65;;;9.00;62.40;;;;;;5071697;28;20029;-71
2021/03/26 10:14:02;;;;;;;18.77;1.52;;;9.10;61.20;;;;;;5071744;28;20063;-71
2021/03/26 10:16:52;;;;;;;6.28;1.80;;;9.10;61.70;;;;;;5071442;28;20082;-72
2021/03/26 10:19:28;;;;;;;5.03;0.95;;;9.10;60.70;;;;;;5071748;28;20039;-72
2021/03/26 10:21:59;;;;;;;5.70;0.80;;;9.20;60.60;;;;;;5071598;28;20028;-70
2021/03/26 10:24:36;;;;;;;;;;;9.20;60.40;;;;;;5072084;28;20074;-72
2021/03/26 10:27:17;;;;;;;10.77;0.85;;;9.20;59.40;;;;;;5071207;28;19916;-71
2021/03/26 10:30:01;;;;;;;4.30;1.00;;;9.30;60.30;;;;;;5071265;28;20017;-71
2021/03/26 10:32:31;;;;;;;10.10;2.10;;;9.30;60.30;;;;;;5071499;28;20043;-71
2021/03/26 10:35:09;;;;;;;3.00;0.65;;;9.30;59.60;;;;;;5063915;28;20075;-72
2021/03/26 10:38:04;;;;;;;14.85;0.95;;;9.30;59.00;;;;;;5065190;28;20493;-72
2021/03/26 10:40:43;;;;;;;4.13;0.68;;;9.40;59.50;;;;;;5060256;28;20063;-72
2021/03/26 10:43:24;;;;;;;6.90;0.90;;;9.40;59.00;;;;;;5069964;28;20016;-70
2021/03/26 10:46:25;;;;;;;9.30;0.88;;;9.40;59.00;;;;;;5067916;28;20044;-71
2021/03/26 10:49:06;;;;;;;2.95;0.60;;;9.40;58.10;;;;;;4969866;28;20082;-71
2021/03/26 10:51:51;;;;;;;2.63;1.00;;;9.40;58.00;;;;;;5053762;28;20082;-70
2021/03/26 10:54:29;;;;;;;2.60;0.65;;;9.40;57.90;;;;;;5063103;28;20035;-71
2021/03/26 10:57:18;;;;;;;1.15;0.50;;;9.40;58.00;;;;;;5063177;28;20392;-71
2021/03/26 10:59:53;;;;;;;6.35;0.77;;;9.40;58.10;;;;;;5068032;28;20060;-69
2021/03/26 11:02:31;;;;;;;8.35;2.20;;;9.40;57.80;;;;;;5100681;28;20642;-71
2021/03/26 11:05:12;;;;;;;16.48;1.00;;;9.40;58.00;;;;;;5069503;28;20016;-70
2021/03/26 11:08:00;;;;;;;;;;;9.50;57.80;;;;;;5069791;28;20025;-71
2021/03/26 11:10:50;;;;;;;14.98;1.55;;;9.50;57.50;;;;;;5057862;28;20020;-71
2021/03/26 11:13:37;;;;;;;7.32;1.08;;;9.50;58.30;;;;;;5063900;28;20028;-72
2021/03/26 11:16:21;;;;;;;13.82;1.30;;;9.60;58.70;;;;;;5082988;28;20123;-71
2021/03/26 11:18:59;;;;;;;12.35;1.45;;;9.60;58.90;;;;;;5084354;28;20027;-71
2021/03/26 11:21:34;;;;;;;10.13;1.55;;;9.60;57.90;;;;;;5083606;28;20028;-71
2021/03/26 11:24:05;;;;;;;2.05;1.00;;;9.60;58.20;;;;;;5091839;28;20024;-71
2021/03/26 11:26:37;;;;;;;4.38;0.90;;;9.60;57.70;;;;;;5095033;28;20038;-73
2021/03/26 11:29:37;;;;;;;5.97;0.75;;;9.70;57.70;;;;;;5097589;28;20076;-71
2021/03/26 11:32:19;;;;;;;;;;;9.70;58.40;;;;;;5092729;28;20510;-71
2021/03/26 11:34:57;;;;;;;10.95;1.48;;;9.70;58.40;;;;;;5094745;28;19912;-70
2021/03/26 11:37:37;;;;;;;4.25;0.70;;;9.70;59.30;;;;;;5099829;28;20122;-70
2021/03/26 11:40:27;;;;;;;6.38;0.57;;;9.70;59.50;;;;;;5091204;28;20056;-70
2021/03/26 11:42:53;;;;;;;5.13;0.60;;;9.80;58.00;;;;;;5094088;28;20024;-70
2021/03/26 11:45:21;;;;;;;3.65;0.80;;;9.80;58.70;;;;;;5094179;28;20024;-70
2021/03/26 11:48:00;;;;;;;4.78;0.63;;;9.80;58.50;;;;;;5089591;28;20078;-70
2021/03/26 11:50:48;;;;;;;3.67;0.50;;;9.80;58.40;;;;;;5093129;28;20028;-69
2021/03/26 11:53:35;;;;;;;3.83;0.68;;;9.80;58.40;;;;;;5079100;28;20044;-80
2021/03/26 11:56:16;;;;;;;10.68;1.67;;;10.30;62.30;;;;;;5092705;28;20519;-68
2021/03/26 11:59:02;;;;;;;8.32;1.65;;;10.40;57.00;;;;;;5089511;28;20081;-68
2021/03/26 12:01:35;;;;;;;2.60;0.63;;;10.30;56.90;;;;;;5093788;28;20028;-68
2021/03/26 12:04:21;;;;;;;4.88;0.70;;;10.10;57.20;;;;;;5093600;28;20043;-68
2021/03/26 12:07:02;;;;;;;9.23;0.60;;;9.90;56.90;;;;;;5090326;28;20095;-67
2021/03/26 12:09:40;;;;;;;7.80;0.90;;;9.90;57.80;;;;;;5093877;28;20032;-68
2021/03/26 12:12:18;;;;;;;8.27;1.20;;;9.90;58.20;;;;;;5093897;28;20051;-68
2021/03/26 12:15:09;;;;;;;6.18;0.70;;;9.90;57.70;;;;;;5093383;28;20044;-68
2021/03/26 12:17:42;;;;;;;7.90;0.98;;;9.80;57.20;;;;;;5093298;28;20111;-68
2021/03/26 12:20:17;;;;;;;4.68;0.88;;;9.80;56.90;;;;;;5093567;28;20031;-67
2021/03/26 12:23:18;;;;;;;14.85;0.95;;;9.70;57.00;;;;;;5093253;28;20475;-68
2021/03/26 12:25:55;;;;;;;12.18;1.00;;;9.70;56.70;;;;;;5093458;28;20052;-68
2021/03/26 12:28:27;;;;;;;8.32;0.68;;;9.70;58.00;;;;;;5093105;28;20055;-68
2021/03/26 12:31:08;;;;;;;8.95;0.90;;;9.70;57.30;;;;;;5092221;28;20020;-70
2021/03/26 12:33:41;;;;;;;9.23;1.15;;;9.80;61.00;;;;;;5093477;28;20123;-71
2021/03/26 12:36:12;;;;;;;4.25;0.82;;;10.40;60.80;;;;;;5092972;28;20490;-71
2021/03/26 12:39:04;;;;;;;10.65;0.98;;;10.70;58.80;;;;;;5093079;28;20031;-71
2021/03/26 12:41:51;;;;;;;5.72;0.95;;;10.70;56.40;;;;;;5093338;28;20016;-71
2021/03/26 12:44:23;;;;;;;5.25;0.68;;;10.50;57.30;;;;;;5085733;28;20028;-72
2021/03/26 12:47:08;;;;;;;4.00;0.70;;;10.40;57.50;;;;;;5090515;28;20064;-77
2021/03/26 12:50:06;;;;;;;2.90;0.70;;;10.40;59.10;;;;;;5092708;28;20020;-76
2021/03/26 12:52:40;;;;;;;8.25;0.93;;;10.40;57.10;;;;;;5056498;28;20075;-76
2021/03/26 12:55:10;;;;;;;4.32;0.93;;;10.30;57.30;;;;;;5093129;28;20021;-77
2021/03/26 12:58:06;;;;;;;13.65;0.93;;;10.20;57.90;;;;;;5092985;28;20020;-77
2021/03/26 13:00:50;;;;;;;15.48;1.15;;;10.20;57.60;;;;;;5091201;28;20020;-78
2021/03/26 13:03:34;;;;;;;6.97;0.85;;;10.20;58.50;;;;;;5092566;28;20032;-76
2021/03/26 13:06:20;;;;;;;4.30;0.90;;;10.20;57.90;;;;;;5083125;28;20099;-77
2021/03/26 13:08:50;;;;;;;4.22;1.00;;;10.20;58.20;;;;;;5096010;28;20021;-76
2021/03/26 13:11:39;;;;;;;10.73;1.20;;;10.10;57.10;;;;;;5091263;28;20028;-75
2021/03/26 13:14:20;;;;;;;5.32;0.75;;;10.00;58.10;;;;;;5088546;28;20089;-75
2021/03/26 13:16:49;;;;;;;5.97;0.68;;;10.10;57.80;;;;;;5092644;28;20028;-75
2021/03/26 13:19:21;;;;;;;2.92;1.08;;;10.40;60.30;;;;;;5095448;28;20050;-77
2021/03/26 13:22:21;;;;;;;3.00;0.93;;;10.40;57.30;;;;;;5092833;28;20024;-84
2021/03/26 13:25:14;;;;;;;6.43;1.70;;;10.20;57.10;;;;;;5065562;28;20047;-72
2021/03/26 13:28:05;;;;;;;2.58;0.70;;;10.10;56.70;;;;;;5094391;28;20020;-73
2021/03/26 13:31:02;;;;;;;8.23;0.90;;;9.80;56.80;;;;;;5092853;28;20038;-73
2021/03/26 13:33:38;;;;;;;4.97;1.10;;;9.70;57.60;;;;;;5080325;28;20046;-72
2021/03/26 13:36:19;;;;;;;10.80;1.38;;;9.60;57.70;;;;;;5092140;28;20031;-72
2021/03/26 13:38:54;;;;;;;23.17;1.95;;;9.60;57.70;;;;;;5092479;28;20077;-72
2021/03/26 13:41:55;;;;;;;3.67;0.98;;;9.50;58.00;;;;;;5081344;28;20051;-73
2021/03/26 13:44:36;;;;;;;5.03;0.70;;;9.50;58.30;;;;;;5084922;28;20028;-71
2021/03/26 13:47:06;;;;;;;8.75;1.10;;;9.50;58.20;;;;;;5086287;28;20107;-72
2021/03/26 13:49:41;;;;;;;4.57;0.70;;;9.40;58.60;;;;;;5092151;28;20142;-72
2021/03/26 13:52:17;;;;;;;23.90;2.05;;;9.40;58.60;;;;;;5091831;28;20040;-71
2021/03/26 13:54:46;;;;;;;5.18;1.25;;;9.30;58.70;;;;;;5092091;28;20050;-71
2021/03/26 13:57:27;;;;;;;7.95;1.00;;;9.30;59.10;;;;;;5091766;28;20108;-72
2021/03/26 13:59:57;;;;;;;9.50;1.10;;;9.30;59.20;;;;;;5091750;28;20046;-69
2021/03/26 14:02:23;;;;;;;;;;;9.20;59.20;;;;;;5088957;28;20111;-74
2021/03/26 14:04:57;;;;;;;6.43;1.20;;;9.20;58.90;;;;;;5091675;28;20014;-71
2021/03/26 14:07:30;;;;;;;11.50;1.20;;;9.10;59.10;;;;;;5091861;28;20024;-72
2021/03/26 14:10:12;;;;;;;20.33;1.30;;;9.00;59.40;;;;;;5091954;28;20028;-71
2021/03/26 14:12:41;;;;;;;18.23;1.45;;;9.00;59.60;;;;;;5090464;28;20074;-72
2021/03/26 14:15:20;;;;;;;3.38;0.85;;;8.90;60.60;;;;;;5091653;28;20067;-72
2021/03/26 14:18:09;;;;;;;7.05;1.08;;;8.90;60.00;;;;;;5091852;28;20058;-72
2021/03/26 14:20:53;;;;;;;15.32;1.15;;;8.90;59.80;;;;;;5091835;28;20383;-71
2021/03/26 14:23:25;;;;;;;7.28;1.48;;;8.80;59.90;;;;;;5080171;28;20024;-71
2021/03/26 14:26:21;;;;;;;10.13;1.23;;;8.80;60.20;;;;;;5091784;28;20020;-71
2021/03/26 14:29:21;;;;;;;13.02;1.40;;;8.80;60.20;;;;;;5083556;28;20036;-70
2021/03/26 14:32:05;;;;;;;10.80;1.40;;;8.80;61.20;;;;;;5091360;28;20031;-71
2021/03/26 14:34:45;;;;;;;19.42;1.15;;;8.80;61.60;;;;;;5091301;28;20524;-70
2021/03/26 14:37:13;;;;;;;;;;;8.80;61.20;;;;;;5088606;28;20035;-70
2021/03/26 14:39:41;;;;;;;13.38;1.17;;;8.80;62.20;;;;;;5085886;28;19904;-70
2021/03/26 14:42:16;;;;;;;8.15;1.15;;;8.80;61.80;;;;;;5090022;28;20115;-70
2021/03/26 14:44:57;;;;;;;5.63;1.20;;;8.80;62.10;;;;;;5090791;28;20024;-70
2021/03/26 14:47:34;;;;;;;9.65;1.05;;;8.80;62.30;;;;;;5091148;28;20111;-70
2021/03/26 14:50:15;;;;;;;4.72;1.05;;;8.70;62.00;;;;;;5085519;28;20020;-70
2021/03/26 14:52:55;;;;;;;7.97;1.08;;;8.70;62.10;;;;;;5084730;28;20029;-70
2021/03/26 14:55:43;;;;;;;8.30;1.63;;;8.60;62.20;;;;;;5085044;28;20111;-70
2021/03/26 14:58:26;;;;;;;4.15;1.00;;;8.60;62.30;;;;;;5095425;28;20027;-70
2021/03/26 15:01:07;;;;;;;11.80;0.90;;;8.50;62.20;;;;;;5084962;28;20020;-70
2021/03/26 15:03:44;;;;;;;9.93;1.20;;;8.50;61.90;;;;;;5095160;28;20356;-70
2021/03/26 15:06:19;;;;;;;13.02;1.00;;;8.40;61.80;;;;;;5095478;28;20020;-69
2021/03/26 15:09:00;;;;;;;11.57;1.42;;;8.40;62.10;;;;;;5094614;28;20024;-67
2021/03/26 15:11:31;;;;;;;19.45;1.42;;;8.40;62.00;;;;;;5090063;28;20479;-69
2021/03/26 15:14:03;;;;;;;6.85;1.80;;;8.40;62.60;;;;;;5092802;28;20027;-69
2021/03/26 15:16:46;;;;;;;15.13;1.38;;;8.30;62.50;;;;;;5093396;28;20499;-70
2021/03/26 15:19:15;;;;;;;7.18;1.25;;;8.30;62.50;;;;;;5093310;28;20028;-70
2021/03/26 15:21:53;;;;;;;4.35;1.13;;;8.30;62.50;;;;;;5091037;28;20028;-69
2021/03/26 15:24:33;;;;;;;12.82;1.17;;;8.20;62.50;;;;;;5095002;28;20036;-71
2021/03/26 15:27:27;;;;;;;8.30;1.10;;;8.30;64.40;;;;;;5094380;28;20103;-73
2021/03/26 15:30:09;;;;;;;5.13;0.98;;;8.30;63.10;;;;;;5087058;28;20024;-72
2021/03/26 15:32:49;;;;;;;7.75;1.00;;;8.30;63.20;;;;;;5087055;28;20043;-73
2021/03/26 15:35:24;;;;;;;;;;;8.20;63.00;;;;;;5086507;28;20044;-73
2021/03/26 15:38:10;;;;;;;10.45;0.95;;;8.10;62.90;;;;;;5087026;28;19904;-72
2021/03/26 15:40:48;;;;;;;7.18;1.20;;;8.00;63.30;;;;;;5085879;28;20118;-73
2021/03/26 15:43:37;;;;;;;2.45;0.80;;;8.00;63.40;;;;;;5089804;28;20025;-73
2021/03/26 15:46:51;;;;;;;9.52;1.02;;;7.90;63.60;;;;;;5084385;28;20033;-72
2021/03/26 15:49:38;;;;;;;2.40;0.80;;;7.80;64.20;;;;;;5081233;28;20034;-72
2021/03/26 15:52:31;;;;;;;9.52;0.98;;;7.70;64.30;;;;;;5091583;28;20037;-72
2021/03/26 15:55:24;;;;;;;5.10;1.00;;;7.70;64.40;;;;;;5093957;28;20099;-73
2021/03/26 15:58:14;;;;;;;4.68;0.88;;;7.60;64.90;;;;;;5092585;28;20024;-73
2021/03/26 16:01:01;;;;;;;3.58;1.00;;;7.60;65.20;;;;;;5093166;28;20024;-68
2021/03/26 16:03:51;;;;;;;5.20;0.77;;;7.50;65.70;;;;;;5087463;28;20411;-69
2021/03/26 16:06:53;;;;;;;7.80;1.10;;;7.40;66.50;;;;;;5091988;28;20593;-69
2021/03/26 16:09:46;;;;;;;1.65;0.90;;;7.40;66.90;;;;;;5092666;28;20036;-69
2021/03/26 16:12:49;;;;;;;5.35;0.70;;;7.30;67.30;;;;;;5093086;28;20060;-67
2021/03/26 16:15:36;;;;;;;7.53;1.42;;;8.10;82.60;;;;;;5091662;28;20438;-69
2021/03/26 16:18:43;;;;;;;8.55;1.20;;;8.40;67.10;;;;;;5093241;28;20075;-69
2021/03/26 16:21:46;;;;;;;15.25;1.50;;;8.00;67.40;;;;;;5064740;28;20032;-69
2021/03/26 16:24:21;;;;;;;6.93;1.23;;;7.70;68.40;;;;;;5070589;28;20507;-69
2021/03/26 16:26:55;;;;;;;12.43;1.10;;;7.60;68.60;;;;;;5092857;28;20024;-69
2021/03/26 16:29:55;;;;;;;7.80;1.17;;;7.40;69.10;;;;;;5092727;28;20055;-69
2021/03/26 16:32:48;;;;;;;6.07;1.17;;;7.30;69.60;;;;;;5092609;28;20040;-69
2021/03/26 16:35:46;;;;;;;3.45;1.00;;;7.20;70.20;;;;;;5091109;28;20629;-69
2021/03/26 16:38:40;;;;;;;12.20;1.45;;;7.10;70.20;;;;;;5070755;28;20090;-69
2021/03/26 16:41:05;;;;;;;17.55;1.45;;;7.10;70.70;;;;;;5092631;28;20031;-70
2021/03/26 16:44:01;;;;;;;5.47;1.25;;;8.40;87.60;;;;;;5092816;28;20020;-71
2021/03/26 16:46:39;;;;;;;8.20;1.00;;;8.70;69.70;;;;;;5091823;28;20024;-71
2021/03/26 16:49:13;;;;;;;5.70;1.42;;;8.10;68.80;;;;;;5092630;28;20495;-66
2021/03/26 16:51:59;;;;;;;17.73;1.95;;;7.70;69.90;;;;;;5092610;28;20016;-68
2021/03/26 16:55:00;;;;;;;5.47;1.17;;;7.30;71.10;;;;;;5088906;28;20487;-69
2021/03/26 16:57:57;;;;;;;7.80;1.63;;;7.10;72.00;;;;;;5085823;28;20497;-73
2021/03/26 17:00:46;;;;;;;9.13;1.15;;;7.00;72.90;;;;;;5090205;28;20024;-70
2021/03/26 17:03:30;;;;;;;8.15;1.13;;;6.80;73.10;;;;;;5091092;28;20028;-72
2021/03/26 17:06:37;;;;;;;8.07;1.05;;;6.70;73.70;;;;;;5091383;28;20515;-71
2021/03/26 17:09:21;;;;;;;4.70;1.05;;;6.60;74.30;;;;;;5064966;28;20070;-71
2021/03/26 17:12:08;;;;;;;7.18;1.10;;;6.50;75.40;;;;;;5092101;28;20040;-71
2021/03/26 17:14:44;;;;;;;6.85;1.10;;;6.50;75.20;;;;;;5090358;28;20036;-69
2021/03/26 17:17:13;;;;;;;14.48;1.60;;;6.40;75.20;;;;;;5091733;28;20153;-70
2021/03/26 17:20:00;;;;;;;2.97;1.17;;;6.30;75.20;;;;;;5091178;28;20103;-70
2021/03/26 17:23:03;;;;;;;2.28;0.90;;;6.30;75.50;;;;;;5092420;28;20020;-72
2021/03/26 17:25:43;;;;;;;3.80;1.00;;;6.20;76.30;;;;;;5090062;28;20016;-73
2021/03/26 17:28:15;;;;;;;;;;;6.10;76.40;;;;;;5090238;28;20055;-71
2021/03/26 17:31:02;;;;;;;6.22;1.00;;;6.10;77.90;;;;;;5091683;28;19911;-71
2021/03/26 17:33:56;;;;;;;6.10;1.10;;;6.00;77.50;;;;;;5091841;28;20028;-70
2021/03/26 17:37:05;;;;;;;4.95;1.05;;;6.00;78.10;;;;;;5091204;28;20028;-70
2021/03/26 17:39:39;;;;;;;2.42;0.90;;;5.90;78.30;;;;;;5051395;28;20036;-69
2021/03/26 17:42:41;;;;;;;8.68;1.70;;;5.80;78.50;;;;;;5091485;28;20093;-69
2021/03/26 17:45:41;;;;;;;8.02;1.33;;;5.80;79.20;;;;;;5091350;28;20042;-70
2021/03/26 17:48:28;;;;;;;4.20;1.08;;;5.70;79.90;;;;;;5090390;28;20073;-72
2021/03/26 17:51:12;;;;;;;11.27;1.58;;;5.60;80.20;;;;;;5086843;28;20063;-71
2021/03/26 17:54:02;;;;;;;2.97;1.27;;;5.50;81.20;;;;;;5088891;28;20060;-71
2021/03/26 17:56:39;;;;;;;4.90;1.13;;;5.50;81.50;;;;;;5091684;28;20468;-72
2021/03/26 17:59:55;;;;;;;3.03;1.10;;;5.40;82.40;;;;;;5091355;28;20667;-71
2021/03/26 18:02:40;;;;;;;3.35;1.48;;;5.40;83.40;;;;;;5008685;28;20037;-70
2021/03/26 18:05:26;;;;;;;4.53;1.20;;;5.30;83.70;;;;;;5008821;28;20030;-72
2021/03/26 18:08:10;;;;;;;4.80;1.05;;;5.30;84.30;;;;;;5069189;28;20032;-71
2021/03/26 18:10:48;;;;;;;4.10;1.10;;;5.20;85.00;;;;;;5090991;28;20103;-72
2021/03/26 18:13:41;;;;;;;3.38;1.30;;;5.10;86.10;;;;;;5089773;28;20115;-71
2021/03/26 18:16:18;;;;;;;4.30;1.30;;;5.10;87.40;;;;;;5073043;28;20127;-72
2021/03/26 18:19:05;;;;;;;4.38;1.45;;;5.00;88.70;;;;;;5091381;28;20027;-72
2021/03/26 18:21:48;;;;;;;5.10;1.42;;;4.90;90.00;;;;;;5089373;28;20020;-70
2021/03/26 18:24:23;;;;;;;2.70;1.40;;;4.90;90.20;;;;;;5091041;28;20028;-71
2021/03/26 18:27:28;;;;;;;4.28;1.60;;;4.90;90.70;;;;;;5091359;28;20012;-70
2021/03/26 18:30:18;;;;;;;3.30;1.65;;;4.80;92.30;;;;;;5087558;28;20020;-70
2021/03/26 18:33:12;;;;;;;4.05;1.67;;;4.70;91.50;;;;;;5090952;28;20115;-71
2021/03/26 18:36:03;;;;;;;5.65;1.52;;;4.60;93.00;;;;;;5091448;28;20034;-71